Wayne, Pennsylvania
Current Conditions -  °F | °C
As of 2:15 PM on Monday 22 Dec 2014 (Local Time) from KLOM Reporting Station
Broken Clouds Broken Clouds  
Wind Chill: 42°   Ceiling: 2400
Heat Index: 45°   Visibility: 10mi
Dew Point: 34°   Wind: 5mph
Humidity: 66%   Direction: 100°E
Pressure: 30.2"   Gusts: NA
Location:  40.04°N, 75.39°W
Report Text: KLOM 221915Z AUTO 10004KT 10SM BKN024 BKN090 07/01 A3020 RMK AO1
Loading
Personal Weather Stations






























Interactive Weather Map New forecast layout! Learn more

10-Day Weather Forecast

Advertisements
Track Severe Weather on mobile